LiveATC.Net - Listen to live air traffic control over the Internet!


ICAO: KDED  IATA: DED   Airport: DeLand Municipal Airport-Sidney H Taylor Field
City: DeLand   State/Province: Florida
Country: United States   Continent: North America
KDED METAR Weather: KDED 191515Z AUTO 03008G20KT 10SM SCT041 BKN050 BKN060 26/19 A3007 RMK AO2
KDED Flight Activity (FlightAware)
KDED Airport Info   (iFlightPlanner)
KDED VFR Sectional Chart   (iFlightPlanner) 
KDED IFR Low Chart   (iFlightPlanner) 

KDED/1J6 CTAF/UNICOM
Feed Status: UP   Listeners: 0
Listen in your browser - HTML5 player (in browser, HTML5)
Click here to listen with your own player (launches your MP3 player)
KDED/1J6 CTAF/UNICOM Audio Archives
FacilityFrequency
DeLand CTAF/UNICOM123.075

NOTICE

Unauthorized use prohibited. See LiveATC.net Terms of Service


Airport/ARTCC Code
Frequency Search
(e.g., 124.400, 128.75)
Site-wide search
 


Browse LiveATC Feeds
Top 50 LiveATC Feeds
LiveATC Feed Map
Bad Weather Areas

LiveATC FAQ
Offer LiveATC feed
Contact LiveATC.net
Press Inquiries

LiveATC on iPhone
LiveATC on Android

Windows Phone
Windows 8/10

LiveATC Mobile
(Mobile browser)

ATC Audio Archives
Interesting Recordings

LiveATC Forums


Home Page
About LiveATC.net
Make a Donation
Terms of Use
Privacy Policy

Canadian Air Freqs

AIRMETs/SIGMETs

FAA Airport Status
Nat'l Airspace Status
Arrival Demand Charts


Server Software By:
Icecast.org
Liquidsoap